createdAt,value
2023-01-04T00:00:48.890Z,970.48
2023-01-04T00:01:48.776Z,970.46
2023-01-04T00:02:48.944Z,970.45
2023-01-04T00:03:48.946Z,970.44
2023-01-04T00:04:48.748Z,970.46
2023-01-04T00:05:48.731Z,970.40
2023-01-04T00:06:48.725Z,970.40
2023-01-04T00:07:48.704Z,970.43
2023-01-04T00:08:48.748Z,970.37
2023-01-04T00:09:48.685Z,970.34
2023-01-04T00:10:48.694Z,970.33
2023-01-04T00:11:48.692Z,970.32
2023-01-04T00:12:48.663Z,970.27
2023-01-04T00:13:48.666Z,970.31
2023-01-04T00:14:48.637Z,970.33
2023-01-04T00:15:48.724Z,970.33
2023-01-04T00:16:48.796Z,970.37
2023-01-04T00:17:48.630Z,970.33
2023-01-04T00:18:48.613Z,970.32
2023-01-04T00:19:48.576Z,970.31
2023-01-04T00:20:48.567Z,970.34
2023-01-04T00:21:48.552Z,970.37
2023-01-04T00:22:48.566Z,970.33
2023-01-04T00:23:48.560Z,970.35
2023-01-04T00:24:48.524Z,970.37
2023-01-04T00:25:48.602Z,970.33
2023-01-04T00:26:48.499Z,970.30
2023-01-04T00:27:48.505Z,970.32
2023-01-04T00:28:53.991Z,970.29
2023-01-04T00:29:48.484Z,970.30
2023-01-04T00:30:48.542Z,970.33
2023-01-04T00:31:48.527Z,970.34
2023-01-04T00:32:48.432Z,970.34
2023-01-04T00:33:48.429Z,970.28
2023-01-04T00:34:48.411Z,970.27
2023-01-04T00:35:48.398Z,970.32
2023-01-04T00:36:48.401Z,970.31
2023-01-04T00:37:52.105Z,970.34
2023-01-04T00:38:48.793Z,970.29
2023-01-04T00:39:48.355Z,970.34
2023-01-04T00:40:48.349Z,970.33
2023-01-04T00:41:58.628Z,970.29
2023-01-04T00:42:48.332Z,970.30
2023-01-04T00:43:48.319Z,970.28
2023-01-04T00:44:48.307Z,970.29
2023-01-04T00:45:48.343Z,970.32
2023-01-04T00:46:48.389Z,970.23
2023-01-04T00:47:48.262Z,970.19
2023-01-04T00:48:49.148Z,970.25
2023-01-04T00:49:48.276Z,970.24
2023-01-04T00:50:48.256Z,970.16
2023-01-04T00:51:48.245Z,970.17
2023-01-04T00:52:48.223Z,970.15
2023-01-04T00:53:48.201Z,970.20
2023-01-04T00:54:48.281Z,970.16
2023-01-04T00:55:48.184Z,970.20
2023-01-04T00:56:48.183Z,970.19
2023-01-04T00:57:48.158Z,970.16
2023-01-04T00:58:48.151Z,970.16
2023-01-04T00:59:48.153Z,970.11
2023-01-04T01:00:48.127Z,970.14
2023-01-04T01:01:48.468Z,970.06
2023-01-04T01:02:48.412Z,970.07
2023-01-04T01:03:48.138Z,970.05
2023-01-04T01:04:48.095Z,970.04
2023-01-04T01:05:48.063Z,970.04
2023-01-04T01:06:48.088Z,969.99
2023-01-04T01:07:48.075Z,969.98
2023-01-04T01:08:48.050Z,970.03
2023-01-04T01:09:48.047Z,970.02
2023-01-04T01:10:48.026Z,970.07
2023-01-04T01:11:48.009Z,970.03
2023-01-04T01:12:48.058Z,970.05
2023-01-04T01:13:47.980Z,970.05
2023-01-04T01:14:47.985Z,970.03
2023-01-04T01:15:47.986Z,969.98
2023-01-04T01:16:57.690Z,970.02
2023-01-04T01:17:48.001Z,970.00
2023-01-04T01:18:47.929Z,970.02
2023-01-04T01:19:48.130Z,970.01
2023-01-04T01:20:47.956Z,969.95
2023-01-04T01:21:47.913Z,969.93
2023-01-04T01:22:47.890Z,969.98
2023-01-04T01:23:47.870Z,970.01
2023-01-04T01:24:49.869Z,970.01
2023-01-04T01:25:47.846Z,970.02
2023-01-04T01:26:47.854Z,970.00
2023-01-04T01:27:47.842Z,970.03
2023-01-04T01:28:47.874Z,970.04
2023-01-04T01:29:47.812Z,970.08
2023-01-04T01:30:47.862Z,970.15
2023-01-04T01:31:47.942Z,970.08
2023-01-04T01:32:47.792Z,970.16
2023-01-04T01:33:47.770Z,970.11
2023-01-04T01:34:47.763Z,970.10
2023-01-04T01:35:47.763Z,970.11
2023-01-04T01:36:47.733Z,970.10
2023-01-04T01:37:47.720Z,970.15
2023-01-04T01:38:47.787Z,970.14
2023-01-04T01:39:47.709Z,970.19
2023-01-04T01:40:47.689Z,970.19
2023-01-04T01:41:47.666Z,970.22
2023-01-04T01:42:47.665Z,970.23
2023-01-04T01:43:47.647Z,970.26
2023-01-04T01:44:47.655Z,970.24
2023-01-04T01:45:47.624Z,970.21
2023-01-04T01:46:47.675Z,970.23
2023-01-04T01:47:47.609Z,970.23
2023-01-04T01:48:47.600Z,970.25
2023-01-04T01:49:47.611Z,970.17
2023-01-04T01:50:47.577Z,970.20
2023-01-04T01:51:47.560Z,970.22
2023-01-04T01:52:47.552Z,970.21
2023-01-04T01:53:47.608Z,970.24
2023-01-04T01:54:47.544Z,970.26
2023-01-04T01:55:47.516Z,970.27
2023-01-04T01:56:47.509Z,970.28
2023-01-04T01:57:47.490Z,970.28
2023-01-04T01:58:47.482Z,970.26
2023-01-04T01:59:47.471Z,970.26
2023-01-04T02:00:47.477Z,970.30
2023-01-04T02:01:47.800Z,970.28
2023-01-04T02:02:47.696Z,970.35
2023-01-04T02:03:47.517Z,970.34
2023-01-04T02:04:47.419Z,970.33
2023-01-04T02:05:47.412Z,970.31
2023-01-04T02:06:47.427Z,970.29
2023-01-04T02:07:47.400Z,970.29
2023-01-04T02:08:47.396Z,970.27
2023-01-04T02:09:47.380Z,970.30
2023-01-04T02:10:47.362Z,970.27
2023-01-04T02:11:47.336Z,970.23
2023-01-04T02:12:47.329Z,970.22
2023-01-04T02:13:47.333Z,970.18
2023-01-04T02:14:47.307Z,970.21
2023-01-04T02:15:47.357Z,970.18
2023-01-04T02:16:47.287Z,970.21
2023-01-04T02:17:47.278Z,970.24
2023-01-04T02:18:47.301Z,970.25
2023-01-04T02:19:47.270Z,970.23
2023-01-04T02:20:47.263Z,970.27
2023-01-04T02:21:47.229Z,970.26
2023-01-04T02:22:47.228Z,970.30
2023-01-04T02:23:47.211Z,970.29
2023-01-04T02:24:47.201Z,970.30
2023-01-04T02:25:47.203Z,970.30
2023-01-04T02:26:47.180Z,970.23
2023-01-04T02:27:47.170Z,970.23
2023-01-04T02:28:47.172Z,970.25
2023-01-04T02:29:47.148Z,970.17
2023-01-04T02:30:47.162Z,970.15
2023-01-04T02:31:47.194Z,970.10
2023-01-04T02:32:47.129Z,970.12
2023-01-04T02:33:47.117Z,970.11
2023-01-04T02:34:47.089Z,970.14
2023-01-04T02:35:47.094Z,970.13
2023-01-04T02:36:47.061Z,970.10
2023-01-04T02:37:47.057Z,970.06
2023-01-04T02:38:47.043Z,970.10
2023-01-04T02:39:47.030Z,970.05
2023-01-04T02:40:47.050Z,970.00
2023-01-04T02:41:47.005Z,970.09
2023-01-04T02:42:47.005Z,970.13
2023-01-04T02:43:46.982Z,970.17
2023-01-04T02:44:46.978Z,970.14
2023-01-04T02:45:46.981Z,970.14
2023-01-04T02:46:47.008Z,970.18
2023-01-04T02:47:46.943Z,970.14
2023-01-04T02:48:46.933Z,970.16
2023-01-04T02:49:46.920Z,970.22
2023-01-04T02:50:46.924Z,970.19
2023-01-04T02:51:46.894Z,970.22
2023-01-04T02:52:46.895Z,970.12
2023-01-04T02:53:46.884Z,970.09
2023-01-04T02:54:46.865Z,970.07
2023-01-04T02:55:46.863Z,970.01
2023-01-04T02:56:46.873Z,970.04
2023-01-04T02:57:46.836Z,969.97
2023-01-04T02:58:46.842Z,969.94
2023-01-04T02:59:46.809Z,969.84
2023-01-04T03:00:46.816Z,969.88
2023-01-04T03:01:46.934Z,969.82
2023-01-04T03:02:46.991Z,969.81
2023-01-04T03:03:46.839Z,969.77
2023-01-04T03:04:46.755Z,969.78
2023-01-04T03:05:46.757Z,969.79
2023-01-04T03:06:46.749Z,969.78
2023-01-04T03:07:46.715Z,969.80
2023-01-04T03:08:46.711Z,969.77
2023-01-04T03:09:46.697Z,969.75
2023-01-04T03:10:46.730Z,969.72
2023-01-04T03:11:46.671Z,969.70
2023-01-04T03:12:46.681Z,969.72
2023-01-04T03:13:46.650Z,969.69
2023-01-04T03:14:46.668Z,969.73
2023-01-04T03:15:46.670Z,969.72
2023-01-04T03:16:46.662Z,969.75
2023-01-04T03:17:46.604Z,969.72
2023-01-04T03:18:46.605Z,969.72
2023-01-04T03:19:46.577Z,969.75
2023-01-04T03:20:46.575Z,969.72
2023-01-04T03:21:46.596Z,969.72
2023-01-04T03:22:46.560Z,969.76
2023-01-04T03:23:46.549Z,969.77
2023-01-04T03:24:46.527Z,969.79
2023-01-04T03:25:46.563Z,969.77
2023-01-04T03:26:46.524Z,969.75
2023-01-04T03:27:46.510Z,969.79
2023-01-04T03:28:46.493Z,969.80
2023-01-04T03:29:46.472Z,969.77
2023-01-04T03:30:46.463Z,969.80
2023-01-04T03:31:46.553Z,969.81
2023-01-04T03:32:46.463Z,969.79
2023-01-04T03:33:46.431Z,969.76
2023-01-04T03:34:46.518Z,969.78
2023-01-04T03:35:46.418Z,969.75
2023-01-04T03:36:46.470Z,969.70
2023-01-04T03:37:46.388Z,969.72
2023-01-04T03:38:46.369Z,969.71
2023-01-04T03:39:46.462Z,969.69
2023-01-04T03:40:46.359Z,969.65
2023-01-04T03:41:46.363Z,969.69
2023-01-04T03:42:46.342Z,969.64
2023-01-04T03:43:46.320Z,969.63
2023-01-04T03:44:46.377Z,969.63
2023-01-04T03:45:46.323Z,969.57
2023-01-04T03:46:46.375Z,969.61
2023-01-04T03:47:46.298Z,969.60
2023-01-04T03:48:46.258Z,969.58
2023-01-04T03:49:46.311Z,969.58
2023-01-04T03:50:46.239Z,969.57
2023-01-04T03:51:46.260Z,969.68
2023-01-04T03:52:46.239Z,969.65
2023-01-04T03:53:46.279Z,969.62
2023-01-04T03:54:46.197Z,969.60
2023-01-04T03:55:46.191Z,969.57
2023-01-04T03:56:46.185Z,969.52
2023-01-04T03:57:46.171Z,969.45
2023-01-04T03:58:46.154Z,969.51
2023-01-04T03:59:46.177Z,969.46
2023-01-04T04:00:46.142Z,969.46
2023-01-04T04:01:46.306Z,969.43
2023-01-04T04:02:46.235Z,969.39
2023-01-04T04:03:46.177Z,969.45
2023-01-04T04:04:46.111Z,969.44
2023-01-04T04:05:46.071Z,969.36
2023-01-04T04:06:46.077Z,969.39
2023-01-04T04:07:46.099Z,969.37
2023-01-04T04:08:46.062Z,969.33
2023-01-04T04:09:46.039Z,969.31
2023-01-04T04:10:46.052Z,969.27
2023-01-04T04:11:46.085Z,969.28
2023-01-04T04:12:46.061Z,969.27
2023-01-04T04:13:46.002Z,969.27
2023-01-04T04:14:45.986Z,969.23
2023-01-04T04:15:46.004Z,969.24
2023-01-04T04:16:45.988Z,969.25
2023-01-04T04:17:45.971Z,969.25
2023-01-04T04:18:45.931Z,969.28
2023-01-04T04:19:45.929Z,969.31
2023-01-04T04:20:45.938Z,969.23
2023-01-04T04:21:45.918Z,969.23
2023-01-04T04:22:46.017Z,969.28
2023-01-04T04:23:45.886Z,969.30
2023-01-04T04:24:45.873Z,969.29
2023-01-04T04:25:45.853Z,969.31
2023-01-04T04:26:45.856Z,969.29
2023-01-04T04:27:47.342Z,969.36
2023-01-04T04:28:45.822Z,969.36
2023-01-04T04:29:45.802Z,969.35
2023-01-04T04:30:45.802Z,969.33
2023-01-04T04:31:45.837Z,969.32
2023-01-04T04:32:45.795Z,969.32
2023-01-04T04:33:45.787Z,969.30
2023-01-04T04:34:45.768Z,969.34
2023-01-04T04:35:45.743Z,969.33
2023-01-04T04:36:45.735Z,969.22
2023-01-04T04:37:45.746Z,969.25
2023-01-04T04:38:45.713Z,969.15
2023-01-04T04:39:45.689Z,969.19
2023-01-04T04:40:45.697Z,969.13
2023-01-04T04:41:45.670Z,969.11
2023-01-04T04:42:45.680Z,969.09
2023-01-04T04:43:45.658Z,969.10
2023-01-04T04:44:45.646Z,969.03
2023-01-04T04:45:45.667Z,969.09
2023-01-04T04:46:45.648Z,969.06
2023-01-04T04:47:45.630Z,969.13
2023-01-04T04:48:45.607Z,969.08
2023-01-04T04:49:45.592Z,969.07
2023-01-04T04:50:45.591Z,969.01
2023-01-04T04:51:45.597Z,969.02
2023-01-04T04:52:47.441Z,968.93
2023-01-04T04:53:45.585Z,968.98
2023-01-04T04:54:45.573Z,968.96
2023-01-04T04:55:45.523Z,968.97
2023-01-04T04:56:45.521Z,968.98
2023-01-04T04:57:45.535Z,968.97
2023-01-04T04:58:45.490Z,968.92
2023-01-04T04:59:45.479Z,968.93
2023-01-04T05:00:45.497Z,968.92
2023-01-04T05:01:45.672Z,968.90
2023-01-04T05:02:45.572Z,968.88
2023-01-04T05:03:45.487Z,968.92
2023-01-04T05:04:45.432Z,968.92
2023-01-04T05:05:45.437Z,968.94
2023-01-04T05:06:45.408Z,968.95
2023-01-04T05:07:45.406Z,968.95
2023-01-04T05:08:45.390Z,968.98
2023-01-04T05:09:45.368Z,968.96
2023-01-04T05:10:45.389Z,968.96
2023-01-04T05:11:45.334Z,968.92
2023-01-04T05:12:45.390Z,968.99
2023-01-04T05:13:45.319Z,968.95
2023-01-04T05:14:45.319Z,968.90
2023-01-04T05:15:45.306Z,968.92
2023-01-04T05:16:45.414Z,968.91
2023-01-04T05:17:45.282Z,968.97
2023-01-04T05:18:45.276Z,968.95
2023-01-04T05:19:45.437Z,968.90
2023-01-04T05:20:45.297Z,968.91
2023-01-04T05:21:45.269Z,968.91
2023-01-04T05:22:45.232Z,968.97
2023-01-04T05:23:45.403Z,968.99
2023-01-04T05:24:45.230Z,968.99
2023-01-04T05:25:45.186Z,969.00
2023-01-04T05:26:45.187Z,968.94
2023-01-04T05:27:45.163Z,968.96
2023-01-04T05:28:51.529Z,968.99
2023-01-04T05:29:45.154Z,968.99
2023-01-04T05:30:45.135Z,969.00
2023-01-04T05:31:45.167Z,968.96
2023-01-04T05:32:45.121Z,968.90
2023-01-04T05:33:45.144Z,968.94
2023-01-04T05:34:45.097Z,968.94
2023-01-04T05:35:45.068Z,969.00
2023-01-04T05:36:45.079Z,968.92
2023-01-04T05:37:45.056Z,968.92
2023-01-04T05:38:45.099Z,969.00
2023-01-04T05:39:45.032Z,968.97
2023-01-04T05:40:45.046Z,968.97
2023-01-04T05:41:45.024Z,968.95
2023-01-04T05:42:45.016Z,969.04
2023-01-04T05:43:45.028Z,968.97
2023-01-04T05:44:44.997Z,968.97
2023-01-04T05:45:45.018Z,969.04
2023-01-04T05:46:44.960Z,969.04
2023-01-04T05:47:44.974Z,969.07
2023-01-04T05:48:44.951Z,969.08
2023-01-04T05:49:44.953Z,969.01
2023-01-04T05:50:44.941Z,969.00
2023-01-04T05:51:44.907Z,969.00
2023-01-04T05:52:44.939Z,968.99
2023-01-04T05:53:44.913Z,968.95
2023-01-04T05:54:44.887Z,968.94
2023-01-04T05:55:44.863Z,969.02
2023-01-04T05:56:44.869Z,968.99
2023-01-04T05:57:44.833Z,968.98
2023-01-04T05:58:44.940Z,968.96
2023-01-04T05:59:44.811Z,969.01
2023-01-04T06:00:44.817Z,968.99
2023-01-04T06:01:44.973Z,969.02
2023-01-04T06:02:44.977Z,969.03
2023-01-04T06:03:44.914Z,969.04
2023-01-04T06:04:44.776Z,969.02
2023-01-04T06:05:44.736Z,969.01
2023-01-04T06:06:44.738Z,969.09
2023-01-04T06:07:44.717Z,969.11
2023-01-04T06:08:44.736Z,969.08
2023-01-04T06:09:44.711Z,969.05
2023-01-04T06:10:44.702Z,969.06
2023-01-04T06:11:44.696Z,969.07
2023-01-04T06:12:44.670Z,969.06
2023-01-04T06:13:44.689Z,969.09
2023-01-04T06:14:44.651Z,969.14
2023-01-04T06:15:44.637Z,969.14
2023-01-04T06:16:44.699Z,969.18
2023-01-04T06:17:45.335Z,969.09
2023-01-04T06:18:44.642Z,969.24
2023-01-04T06:19:44.609Z,969.27
2023-01-04T06:20:44.593Z,969.20
2023-01-04T06:21:44.607Z,969.23
2023-01-04T06:22:44.647Z,969.20
2023-01-04T06:23:44.553Z,969.23
2023-01-04T06:24:44.535Z,969.22
2023-01-04T06:25:44.528Z,969.22
2023-01-04T06:26:44.522Z,969.15
2023-01-04T06:27:44.511Z,969.15
2023-01-04T06:28:44.511Z,969.15
2023-01-04T06:29:44.474Z,969.14
2023-01-04T06:30:44.563Z,969.16
2023-01-04T06:31:44.466Z,969.18
2023-01-04T06:32:44.454Z,969.20
2023-01-04T06:33:44.461Z,969.18
2023-01-04T06:34:44.493Z,969.17
2023-01-04T06:35:44.479Z,969.14
2023-01-04T06:36:44.407Z,969.16
2023-01-04T06:37:44.387Z,969.08
2023-01-04T06:38:44.392Z,969.07
2023-01-04T06:39:44.451Z,969.06
2023-01-04T06:40:44.388Z,969.06
2023-01-04T06:41:44.343Z,969.02
2023-01-04T06:42:44.400Z,969.04
2023-01-04T06:43:44.346Z,969.00
2023-01-04T06:44:44.385Z,968.99
2023-01-04T06:45:44.320Z,968.98
2023-01-04T06:46:44.367Z,968.92
2023-01-04T06:47:44.281Z,968.91
2023-01-04T06:48:44.273Z,968.89
2023-01-04T06:49:44.360Z,968.89
2023-01-04T06:50:44.248Z,968.88
2023-01-04T06:51:44.231Z,968.88
2023-01-04T06:52:44.275Z,968.79
2023-01-04T06:53:44.210Z,968.83
2023-01-04T06:54:44.263Z,968.78
2023-01-04T06:55:44.192Z,968.80
2023-01-04T06:56:44.205Z,968.84
2023-01-04T06:57:44.173Z,968.78
2023-01-04T06:58:44.162Z,968.83
2023-01-04T06:59:44.152Z,968.75
2023-01-04T07:00:44.161Z,968.87
2023-01-04T07:01:44.265Z,968.82
2023-01-04T07:03:12.561Z,968.84
2023-01-04T07:03:44.126Z,968.80
2023-01-04T07:04:44.346Z,968.81
2023-01-04T07:05:44.095Z,968.71
2023-01-04T07:06:44.072Z,968.77
2023-01-04T07:07:44.077Z,968.76
2023-01-04T07:08:44.077Z,968.75
2023-01-04T07:09:46.774Z,968.71
2023-01-04T07:10:44.029Z,968.73
2023-01-04T07:11:44.011Z,968.71
2023-01-04T07:12:44.004Z,968.75
2023-01-04T07:13:43.998Z,968.74
2023-01-04T07:14:43.998Z,968.75
2023-01-04T07:15:44.143Z,968.76
2023-01-04T07:16:44.065Z,968.77
2023-01-04T07:17:43.978Z,968.78
2023-01-04T07:18:43.974Z,968.80
2023-01-04T07:19:43.960Z,968.77
2023-01-04T07:20:44.350Z,968.79
2023-01-04T07:21:43.906Z,968.75
2023-01-04T07:22:43.911Z,968.75
2023-01-04T07:23:43.896Z,968.75
2023-01-04T07:24:45.937Z,968.80
2023-01-04T07:25:43.882Z,968.75
2023-01-04T07:26:43.883Z,968.74
2023-01-04T07:27:43.838Z,968.77
2023-01-04T07:28:43.875Z,968.77
2023-01-04T07:29:43.832Z,968.74
2023-01-04T07:30:43.834Z,968.67
2023-01-04T07:31:43.829Z,968.74
2023-01-04T07:32:43.799Z,968.73
2023-01-04T07:33:43.777Z,968.72
2023-01-04T07:34:43.774Z,968.73
2023-01-04T07:35:43.741Z,968.77
2023-01-04T07:36:43.783Z,968.80
2023-01-04T07:37:43.738Z,968.80
2023-01-04T07:38:43.732Z,968.82
2023-01-04T07:39:43.765Z,968.84
2023-01-04T07:40:55.945Z,968.86
2023-01-04T07:41:43.700Z,968.84
2023-01-04T07:42:43.672Z,968.84
2023-01-04T07:43:43.684Z,968.89
2023-01-04T07:44:43.662Z,968.85
2023-01-04T07:45:43.629Z,968.81
2023-01-04T07:46:43.767Z,968.76
2023-01-04T07:47:43.621Z,968.77
2023-01-04T07:48:43.616Z,968.74
2023-01-04T07:49:43.610Z,968.67
2023-01-04T07:50:43.592Z,968.68
2023-01-04T07:51:43.564Z,968.67
2023-01-04T07:52:43.645Z,968.65
2023-01-04T07:53:43.561Z,968.62
2023-01-04T07:54:43.803Z,968.58
2023-01-04T07:55:43.543Z,968.58
2023-01-04T07:56:43.871Z,968.50
2023-01-04T07:57:45.382Z,968.48
2023-01-04T07:58:47.027Z,968.44
2023-01-04T07:59:45.201Z,968.47
2023-01-04T08:00:43.493Z,968.44
2023-01-04T08:01:43.691Z,968.41
2023-01-04T08:02:44.767Z,968.36
2023-01-04T08:03:43.459Z,968.43
2023-01-04T08:04:44.723Z,968.41
2023-01-04T08:05:44.906Z,968.46
2023-01-04T08:06:43.611Z,968.46
2023-01-04T08:07:44.842Z,968.45
2023-01-04T08:08:57.542Z,968.41
2023-01-04T08:09:43.387Z,968.40
2023-01-04T08:10:43.401Z,968.44
2023-01-04T08:11:43.376Z,968.40
2023-01-04T08:12:43.372Z,968.35
2023-01-04T08:13:43.338Z,968.35
2023-01-04T08:14:43.402Z,968.40
2023-01-04T08:15:43.417Z,968.43
2023-01-04T08:16:43.302Z,968.45
2023-01-04T08:17:43.311Z,968.43
2023-01-04T08:18:43.267Z,968.42
2023-01-04T08:19:43.266Z,968.36
2023-01-04T08:20:43.334Z,968.40
2023-01-04T08:21:43.240Z,968.43
2023-01-04T08:22:43.243Z,968.44
2023-01-04T08:23:43.259Z,968.43
2023-01-04T08:24:43.200Z,968.45
2023-01-04T08:25:43.237Z,968.40
2023-01-04T08:26:43.187Z,968.41
2023-01-04T08:27:43.235Z,968.45
2023-01-04T08:28:43.190Z,968.38
2023-01-04T08:29:43.152Z,968.39
2023-01-04T08:30:43.167Z,968.37
2023-01-04T08:31:43.271Z,968.34
2023-01-04T08:32:43.169Z,968.38
2023-01-04T08:33:43.174Z,968.41
2023-01-04T08:34:43.137Z,968.39
2023-01-04T08:35:43.107Z,968.36
2023-01-04T08:36:43.065Z,968.37
2023-01-04T08:37:43.118Z,968.42
2023-01-04T08:39:00.904Z,968.41
2023-01-04T08:39:48.711Z,968.40
2023-01-04T08:40:59.649Z,968.37
2023-01-04T08:42:43.014Z,968.38
2023-01-04T08:43:43.012Z,968.42
2023-01-04T08:44:43.709Z,968.38
2023-01-04T08:45:43.878Z,968.34
2023-01-04T08:46:42.998Z,968.35
2023-01-04T08:47:42.955Z,968.36
2023-01-04T08:48:43.042Z,968.33
2023-01-04T08:49:45.643Z,968.33
2023-01-04T08:50:45.059Z,968.38
2023-01-04T08:51:43.254Z,968.35
2023-01-04T08:52:42.912Z,968.33
2023-01-04T08:53:42.889Z,968.31
2023-01-04T08:54:42.896Z,968.32
2023-01-04T08:55:42.900Z,968.34
2023-01-04T08:56:43.032Z,968.34
2023-01-04T08:57:42.861Z,968.39
2023-01-04T08:58:42.855Z,968.39
2023-01-04T08:59:43.800Z,968.36
2023-01-04T09:00:42.814Z,968.33
2023-01-04T09:01:42.882Z,968.31
2023-01-04T09:02:42.857Z,968.31
2023-01-04T09:03:42.790Z,968.33
2023-01-04T09:04:42.890Z,968.24
2023-01-04T09:05:42.801Z,968.20
2023-01-04T09:06:42.773Z,968.23
2023-01-04T09:07:42.765Z,968.25
2023-01-04T09:08:42.735Z,968.24
2023-01-04T09:09:42.749Z,968.25
2023-01-04T09:10:43.766Z,968.25
2023-01-04T09:11:42.719Z,968.23
2023-01-04T09:12:42.676Z,968.22
2023-01-04T09:13:42.688Z,968.19
2023-01-04T09:14:42.735Z,968.16
2023-01-04T09:15:42.688Z,968.15
2023-01-04T09:16:42.731Z,968.20
2023-01-04T09:18:05.215Z,968.18
2023-01-04T09:18:42.632Z,968.17
2023-01-04T09:19:42.726Z,968.16
2023-01-04T09:20:42.580Z,968.13
2023-01-04T09:21:42.695Z,968.16
2023-01-04T09:22:42.593Z,968.11
2023-01-04T09:23:42.553Z,968.10
2023-01-04T09:24:42.543Z,968.11
2023-01-04T09:25:42.524Z,968.15
2023-01-04T09:26:42.529Z,968.18
2023-01-04T09:27:42.508Z,968.18
2023-01-04T09:28:42.494Z,968.17
2023-01-04T09:29:42.521Z,968.21
2023-01-04T09:30:42.472Z,968.14
2023-01-04T09:31:42.564Z,968.23
2023-01-04T09:32:42.453Z,968.17
2023-01-04T09:34:12.976Z,968.19
2023-01-04T09:34:42.426Z,968.16
2023-01-04T09:35:42.417Z,968.18
2023-01-04T09:36:42.438Z,968.23
2023-01-04T09:37:42.428Z,968.16
2023-01-04T09:38:42.405Z,968.24
2023-01-04T09:39:42.464Z,968.14
2023-01-04T09:40:42.596Z,968.17
2023-01-04T09:41:42.357Z,968.13
2023-01-04T09:42:42.372Z,968.18
2023-01-04T09:43:42.327Z,968.19
2023-01-04T09:45:43.236Z,968.07
2023-01-04T09:46:42.319Z,968.06
2023-01-04T09:47:42.304Z,968.08
2023-01-04T09:48:42.265Z,968.10
2023-01-04T09:49:42.345Z,968.08
2023-01-04T09:50:42.288Z,968.01
2023-01-04T09:51:42.345Z,968.10
2023-01-04T09:52:42.236Z,968.11
2023-01-04T09:53:42.211Z,968.10
2023-01-04T09:54:42.209Z,968.01
2023-01-04T09:55:42.190Z,968.10
2023-01-04T09:56:42.221Z,968.07
2023-01-04T09:57:42.242Z,968.03
2023-01-04T09:58:42.153Z,967.97
2023-01-04T09:59:42.155Z,968.00
2023-01-04T10:00:44.076Z,968.07
2023-01-04T10:01:42.474Z,968.06
2023-01-04T10:02:42.324Z,968.05
2023-01-04T10:03:42.136Z,967.94
2023-01-04T10:04:42.103Z,968.04
2023-01-04T10:05:42.094Z,967.98
2023-01-04T10:06:42.105Z,967.94
2023-01-04T10:07:42.105Z,967.96
2023-01-04T10:08:42.064Z,967.96
2023-01-04T10:09:42.045Z,967.94
2023-01-04T10:10:42.023Z,967.95
2023-01-04T10:11:42.036Z,967.97
2023-01-04T10:12:42.026Z,967.97
2023-01-04T10:13:42.002Z,967.93
2023-01-04T10:14:41.980Z,967.95
2023-01-04T10:15:42.043Z,967.89
2023-01-04T10:17:12.085Z,967.90
2023-01-04T10:18:57.628Z,967.93
2023-01-04T10:21:28.301Z,967.82
2023-01-04T10:22:05.263Z,967.79
2023-01-04T10:23:05.075Z,967.78
2023-01-04T10:24:05.086Z,967.74
2023-01-04T10:25:05.072Z,967.77
2023-01-04T10:26:05.051Z,967.73
2023-01-04T10:27:05.048Z,967.80
2023-01-04T10:28:05.016Z,967.70
2023-01-04T10:29:05.016Z,967.69
2023-01-04T10:30:05.014Z,967.65
2023-01-04T10:31:40.643Z,967.56
2023-01-04T10:32:05.048Z,967.57
2023-01-04T10:33:04.966Z,967.50
2023-01-04T10:34:04.971Z,967.49
2023-01-04T10:35:04.949Z,967.50
2023-01-04T10:36:04.936Z,967.48
2023-01-04T10:37:04.934Z,967.39
2023-01-04T10:38:04.925Z,967.45
2023-01-04T10:39:04.904Z,967.40
2023-01-04T10:40:04.924Z,967.38
2023-01-04T10:41:04.872Z,967.42
2023-01-04T10:42:04.872Z,967.43
2023-01-04T10:43:04.876Z,967.39
2023-01-04T10:44:11.125Z,967.37
2023-01-04T10:45:08.856Z,967.38
2023-01-04T10:46:04.836Z,967.31
2023-01-04T10:47:04.923Z,967.30
2023-01-04T10:48:04.829Z,967.28
2023-01-04T10:49:04.784Z,967.25
2023-01-04T10:50:04.939Z,967.27
2023-01-04T10:51:09.637Z,967.26
2023-01-04T10:52:04.844Z,967.30
2023-01-04T10:53:04.794Z,967.27
2023-01-04T10:54:04.756Z,967.27
2023-01-04T10:55:04.753Z,967.19
2023-01-04T10:56:25.936Z,967.16
2023-01-04T10:57:06.841Z,967.17
2023-01-04T10:58:04.795Z,967.14
2023-01-04T10:59:04.724Z,967.15
2023-01-04T11:00:04.688Z,967.13
2023-01-04T11:01:04.782Z,967.12
2023-01-04T11:02:04.866Z,967.09
2023-01-04T11:03:08.799Z,967.03
2023-01-04T11:04:04.731Z,967.01
2023-01-04T11:05:04.605Z,967.04
2023-01-04T11:06:04.617Z,967.03
2023-01-04T11:07:04.588Z,966.99
2023-01-04T11:08:04.691Z,966.99
2023-01-04T11:09:04.566Z,966.99
2023-01-04T11:10:04.553Z,966.98
2023-01-04T11:11:04.539Z,966.93
2023-01-04T11:12:04.551Z,966.96
2023-01-04T11:13:04.546Z,966.93
2023-01-04T11:14:04.546Z,966.92
2023-01-04T11:15:04.487Z,966.88
2023-01-04T11:16:04.508Z,966.93
2023-01-04T11:17:04.474Z,966.86
2023-01-04T11:18:04.493Z,966.84
2023-01-04T11:19:04.496Z,966.81
2023-01-04T11:20:04.433Z,966.84
2023-01-04T11:21:04.426Z,966.85
2023-01-04T11:22:05.213Z,966.89
2023-01-04T11:23:04.639Z,966.93
2023-01-04T11:24:30.099Z,966.83
2023-01-04T11:26:04.385Z,966.84
2023-01-04T11:27:04.428Z,966.80
2023-01-04T11:28:04.443Z,966.77
2023-01-04T11:29:04.368Z,966.74
2023-01-04T11:30:04.388Z,966.76
2023-01-04T11:31:04.347Z,966.71
2023-01-04T11:32:04.421Z,966.69
2023-01-04T11:33:04.298Z,966.67
2023-01-04T11:34:04.292Z,966.68
2023-01-04T11:35:04.287Z,966.72
2023-01-04T11:36:07.234Z,966.71
2023-01-04T11:37:04.242Z,966.71
2023-01-04T11:38:04.315Z,966.91
2023-01-04T11:39:04.221Z,966.82
2023-01-04T11:40:04.209Z,966.72
2023-01-04T11:41:04.206Z,966.75
2023-01-04T11:42:04.198Z,966.75
2023-01-04T11:43:04.222Z,966.74
2023-01-04T11:44:04.173Z,966.72
2023-01-04T11:45:04.193Z,966.66
2023-01-04T11:46:04.226Z,966.69
2023-01-04T11:47:04.863Z,966.70
2023-01-04T11:48:09.220Z,966.67
2023-01-04T11:49:04.174Z,966.67
2023-01-04T11:50:04.097Z,966.68
2023-01-04T11:51:04.101Z,966.71
2023-01-04T11:52:04.206Z,966.70
2023-01-04T11:53:04.086Z,966.59
2023-01-04T11:54:04.078Z,966.59
2023-01-04T11:55:04.040Z,966.54
2023-01-04T11:56:04.042Z,966.42
2023-01-04T11:57:11.061Z,966.39
2023-01-04T11:58:04.080Z,966.45
2023-01-04T11:59:04.016Z,966.42
2023-01-04T12:00:04.827Z,966.45
2023-01-04T12:01:03.995Z,966.44
2023-01-04T12:02:04.103Z,966.48
2023-01-04T12:03:04.047Z,966.50
2023-01-04T12:04:03.997Z,966.48
2023-01-04T12:05:03.974Z,966.36
2023-01-04T12:06:03.924Z,966.41
2023-01-04T12:07:03.931Z,966.41
2023-01-04T12:08:03.920Z,966.38
2023-01-04T12:09:03.988Z,966.37
2023-01-04T12:10:03.881Z,966.30
2023-01-04T12:11:03.946Z,966.37
2023-01-04T12:12:03.857Z,966.35
2023-01-04T12:13:03.888Z,966.27
2023-01-04T12:14:03.856Z,966.26
2023-01-04T12:15:03.834Z,966.22
2023-01-04T12:16:03.826Z,966.20
2023-01-04T12:17:03.826Z,966.21
2023-01-04T12:18:03.789Z,966.17
2023-01-04T12:19:03.809Z,966.15
2023-01-04T12:20:03.792Z,966.11
2023-01-04T12:21:03.900Z,966.14
2023-01-04T12:22:03.756Z,966.05
2023-01-04T12:23:03.743Z,966.13
2023-01-04T12:24:03.750Z,966.07
2023-01-04T12:25:03.730Z,966.09
2023-01-04T12:26:03.718Z,966.09
2023-01-04T12:27:03.690Z,966.11
2023-01-04T12:28:03.691Z,966.06
2023-01-04T12:29:03.689Z,966.10
2023-01-04T12:30:03.657Z,966.01
2023-01-04T12:32:03.667Z,966.06
2023-01-04T12:33:03.676Z,966.00
2023-01-04T12:34:03.680Z,965.96
2023-01-04T12:35:03.641Z,966.02